createdAt,value
2018-12-08T00:00:45.260Z,69.20
2018-12-08T00:03:15.766Z,73.60
2018-12-08T00:05:45.865Z,71.93
2018-12-08T00:08:16.888Z,76.60
2018-12-08T00:10:47.891Z,76.37
2018-12-08T00:13:18.100Z,71.33
2018-12-08T00:15:48.961Z,74.97
2018-12-08T00:18:19.995Z,77.90
2018-12-08T00:20:50.022Z,73.03
2018-12-08T00:23:21.056Z,67.70
2018-12-08T00:25:51.948Z,70.77
2018-12-08T00:28:22.259Z,71.40
2018-12-08T00:31:04.266Z,78.70
2018-12-08T00:33:34.189Z,72.17
2018-12-08T00:36:04.128Z,72.20
2018-12-08T00:38:33.861Z,71.00
2018-12-08T00:41:04.967Z,79.80
2018-12-08T00:43:35.065Z,74.70
2018-12-08T00:46:06.317Z,67.40
2018-12-08T00:48:36.944Z,65.77
2018-12-08T00:51:09.252Z,74.37
2018-12-08T00:53:40.370Z,74.37
2018-12-08T00:56:10.484Z,72.70
2018-12-08T00:58:40.005Z,66.90
2018-12-08T01:01:11.861Z,65.30
2018-12-08T01:03:42.384Z,67.97
2018-12-08T01:06:12.858Z,74.83
2018-12-08T01:08:43.076Z,70.47
2018-12-08T01:11:14.131Z,70.20
2018-12-08T01:13:44.872Z,68.37
2018-12-08T01:16:15.313Z,72.43
2018-12-08T01:18:46.829Z,67.57
2018-12-08T01:21:21.999Z,72.83
2018-12-08T01:23:59.224Z,71.93
2018-12-08T01:26:30.434Z,74.27
2018-12-08T01:29:00.388Z,63.30
2018-12-08T01:31:31.393Z,77.13
2018-12-08T01:34:02.536Z,64.30
2018-12-08T01:36:32.445Z,64.63
2018-12-08T01:39:03.791Z,72.13
2018-12-08T01:41:33.798Z,63.47
2018-12-08T01:44:05.289Z,66.50
2018-12-08T01:46:34.814Z,62.00
2018-12-08T01:49:04.540Z,66.00
2018-12-08T01:51:34.070Z,63.57
2018-12-08T01:54:05.295Z,66.83
2018-12-08T01:56:34.824Z,63.10
2018-12-08T01:59:06.428Z,63.27
2018-12-08T02:01:38.546Z,65.40
2018-12-08T02:04:10.504Z,57.30
2018-12-08T02:06:40.783Z,69.47
2018-12-08T02:09:11.275Z,69.03
2018-12-08T02:11:43.611Z,63.07
2018-12-08T02:14:15.403Z,62.20
2018-12-08T02:16:46.314Z,59.83
2018-12-08T02:19:16.902Z,59.93
2018-12-08T02:21:46.689Z,61.00
2018-12-08T02:24:17.834Z,65.63
2018-12-08T02:26:48.963Z,60.47
2018-12-08T02:29:19.512Z,61.20
2018-12-08T02:31:49.519Z,64.63
2018-12-08T02:34:20.751Z,62.70
2018-12-08T02:36:51.622Z,61.87
2018-12-08T02:39:21.657Z,72.50
2018-12-08T02:41:52.700Z,66.70
2018-12-08T02:44:23.733Z,66.10
2018-12-08T02:46:54.618Z,66.70
2018-12-08T02:49:25.425Z,69.00
2018-12-08T02:51:59.567Z,75.20
2018-12-08T02:54:29.541Z,64.90
2018-12-08T02:57:00.851Z,67.00
2018-12-08T02:59:31.676Z,74.73
2018-12-08T03:02:01.759Z,72.67
2018-12-08T03:04:34.316Z,65.70
2018-12-08T03:07:08.613Z,68.70
2018-12-08T03:09:40.840Z,65.70
2018-12-08T03:12:12.064Z,73.60
2018-12-08T03:14:44.715Z,72.00
2018-12-08T03:17:14.695Z,80.20
2018-12-08T03:19:48.115Z,67.00
2018-12-08T03:22:18.855Z,67.33
2018-12-08T03:24:48.856Z,70.30
2018-12-08T03:27:19.919Z,78.50
2018-12-08T03:29:50.745Z,63.97
2018-12-08T03:32:21.477Z,66.63
2018-12-08T03:34:51.879Z,56.10
2018-12-08T03:37:22.680Z,42.00
2018-12-08T03:39:53.482Z,30.00
2018-12-08T03:42:23.894Z,16.40
2018-12-08T03:45:00.549Z,4.87
2018-12-08T03:47:37.735Z,4.03
2018-12-08T03:50:09.203Z,2.00
2018-12-08T03:52:41.248Z,1.80
2018-12-08T03:55:12.884Z,1.60
2018-12-08T03:57:44.093Z,3.20
2018-12-08T04:00:15.081Z,5.00
2018-12-08T04:02:45.685Z,2.40
2018-12-08T04:05:15.893Z,1.90
2018-12-08T04:07:46.756Z,1.53
2018-12-08T04:10:17.020Z,1.30
2018-12-08T04:12:47.864Z,2.50
2018-12-08T04:15:18.395Z,2.90
2018-12-08T04:17:49.125Z,2.17
2018-12-08T04:20:19.147Z,1.50
2018-12-08T04:22:49.943Z,1.60
2018-12-08T04:25:21.049Z,1.30
2018-12-08T04:27:51.032Z,1.57
2018-12-08T04:30:22.079Z,1.40
2018-12-08T04:32:52.097Z,1.83
2018-12-08T04:35:23.180Z,3.73
2018-12-08T04:37:54.181Z,2.53
2018-12-08T04:40:24.214Z,2.20
2018-12-08T04:42:55.096Z,1.67
2018-12-08T04:45:26.381Z,3.60
2018-12-08T04:47:57.023Z,1.60
2018-12-08T04:50:27.153Z,3.83
2018-12-08T04:52:58.211Z,3.40
2018-12-08T04:55:29.211Z,1.37
2018-12-08T04:58:00.069Z,1.00
2018-12-08T05:00:30.936Z,3.77
2018-12-08T05:03:01.236Z,1.30
2018-12-08T05:05:32.416Z,1.20
2018-12-08T05:08:03.258Z,1.57
2018-12-08T05:10:33.279Z,1.53
2018-12-08T05:13:04.325Z,3.73
2018-12-08T05:15:34.166Z,1.80
2018-12-08T05:18:05.402Z,2.10
2018-12-08T05:20:34.867Z,1.00
2018-12-08T05:23:06.237Z,1.00
2018-12-08T05:25:37.313Z,3.27
2018-12-08T05:28:08.057Z,3.40
2018-12-08T05:30:38.732Z,2.40
2018-12-08T05:33:09.324Z,4.23
2018-12-08T05:35:40.057Z,3.50
2018-12-08T05:38:10.284Z,1.63
2018-12-08T05:40:40.532Z,2.60
2018-12-08T05:43:12.035Z,2.60
2018-12-08T05:45:42.854Z,1.40
2018-12-08T05:48:13.400Z,2.40
2018-12-08T05:50:43.294Z,2.50
2018-12-08T05:53:20.479Z,2.47
2018-12-08T05:55:51.590Z,1.40
2018-12-08T05:58:22.417Z,1.50
2018-12-08T06:00:54.719Z,6.20
2018-12-08T06:03:24.529Z,1.40
2018-12-08T06:05:55.843Z,3.93
2018-12-08T06:08:25.531Z,1.40
2018-12-08T06:10:56.635Z,1.07
2018-12-08T06:13:31.507Z,2.70
2018-12-08T06:16:03.555Z,1.10
2018-12-08T06:18:34.065Z,5.53
2018-12-08T06:21:04.712Z,1.83
2018-12-08T06:23:34.268Z,1.30
2018-12-08T06:26:14.660Z,0.80
2018-12-08T06:28:47.732Z,1.40
2018-12-08T06:31:19.655Z,2.60
2018-12-08T06:33:49.940Z,3.20
2018-12-08T06:36:20.643Z,1.93
2018-12-08T06:38:51.548Z,2.60
2018-12-08T06:41:22.694Z,1.20
2018-12-08T06:43:52.605Z,1.13
2018-12-08T06:46:23.632Z,1.73
2018-12-08T06:48:53.685Z,1.40
2018-12-08T06:51:24.964Z,1.53
2018-12-08T06:53:55.797Z,8.13
2018-12-08T06:56:26.866Z,3.43
2018-12-08T06:58:56.852Z,1.20
2018-12-08T07:01:28.882Z,2.73
2018-12-08T07:04:01.649Z,5.83
2018-12-08T07:06:34.136Z,2.77
2018-12-08T07:09:07.503Z,1.50
2018-12-08T07:11:37.108Z,2.10
2018-12-08T07:14:07.933Z,3.30
2018-12-08T07:16:37.952Z,2.13
2018-12-08T07:19:09.036Z,2.17
2018-12-08T07:21:39.528Z,2.80
2018-12-08T07:24:09.986Z,1.63
2018-12-08T07:26:40.607Z,1.30
2018-12-08T07:29:10.944Z,2.40
2018-12-08T07:31:41.657Z,1.57
2018-12-08T07:34:12.061Z,2.43
2018-12-08T07:36:42.855Z,2.30
2018-12-08T07:39:13.073Z,1.60
2018-12-08T07:41:44.210Z,3.60
2018-12-08T07:44:14.165Z,1.97
2018-12-08T07:46:43.991Z,4.53
2018-12-08T07:49:15.908Z,1.50
2018-12-08T07:51:46.596Z,2.80
2018-12-08T07:54:16.952Z,3.43
2018-12-08T07:56:47.159Z,1.20
2018-12-08T07:59:18.585Z,2.50
2018-12-08T08:01:49.422Z,1.63
2018-12-08T08:04:19.989Z,4.50
2018-12-08T08:06:50.943Z,2.40
2018-12-08T08:09:21.163Z,3.30
2018-12-08T08:11:52.179Z,3.23
2018-12-08T08:14:23.312Z,3.00
2018-12-08T08:16:53.778Z,2.80
2018-12-08T08:19:23.355Z,1.50
2018-12-08T08:21:55.410Z,3.00
2018-12-08T08:24:26.176Z,3.00
2018-12-08T08:26:56.995Z,2.90
2018-12-08T08:29:27.021Z,0.80
2018-12-08T08:31:57.845Z,1.77
2018-12-08T08:34:28.267Z,3.50
2018-12-08T08:36:58.962Z,2.10
2018-12-08T08:39:29.023Z,1.97
2018-12-08T08:42:00.208Z,2.80
2018-12-08T08:44:30.276Z,3.70
2018-12-08T08:47:01.338Z,3.73
2018-12-08T08:49:31.997Z,2.70
2018-12-08T08:52:02.412Z,2.90
2018-12-08T08:54:33.237Z,2.43
2018-12-08T08:57:03.263Z,1.93
2018-12-08T08:59:34.450Z,2.40
2018-12-08T09:02:05.532Z,1.40
2018-12-08T09:04:35.050Z,2.03
2018-12-08T09:07:10.124Z,1.90
2018-12-08T09:09:40.561Z,4.53
2018-12-08T09:12:11.340Z,2.50
2018-12-08T09:14:42.758Z,1.80
2018-12-08T09:17:12.646Z,2.73
2018-12-08T09:19:43.588Z,1.87
2018-12-08T09:22:14.621Z,2.27
2018-12-08T09:24:45.540Z,1.20
2018-12-08T09:27:15.713Z,4.07
2018-12-08T09:29:46.648Z,1.83
2018-12-08T09:32:17.689Z,3.67
2018-12-08T09:34:48.584Z,3.60
2018-12-08T09:37:18.653Z,1.77
2018-12-08T09:39:50.352Z,1.37
2018-12-08T09:42:22.614Z,2.03
2018-12-08T09:44:53.445Z,4.50
2018-12-08T09:47:24.558Z,4.90
2018-12-08T09:49:55.592Z,1.60
2018-12-08T09:52:25.815Z,1.50
2018-12-08T09:54:55.700Z,3.00
2018-12-08T09:57:26.460Z,2.47
2018-12-08T09:59:57.587Z,4.40
2018-12-08T10:02:29.017Z,2.17
2018-12-08T10:04:58.556Z,3.20
2018-12-08T10:07:29.593Z,1.70
2018-12-08T10:10:01.001Z,1.40
2018-12-08T10:12:30.733Z,2.70
2018-12-08T10:15:02.117Z,2.97
2018-12-08T10:17:32.607Z,12.37
2018-12-08T10:20:03.684Z,1.47
2018-12-08T10:22:35.652Z,3.10
2018-12-08T10:25:07.910Z,3.80
2018-12-08T10:27:38.803Z,2.40
2018-12-08T10:30:10.684Z,1.80
2018-12-08T10:32:40.898Z,6.07
2018-12-08T10:35:13.070Z,3.13
2018-12-08T10:37:43.852Z,1.60
2018-12-08T10:40:16.001Z,1.90
2018-12-08T10:42:51.492Z,3.00
2018-12-08T10:45:22.493Z,2.30
2018-12-08T10:47:52.960Z,2.03
2018-12-08T10:50:23.194Z,2.10
2018-12-08T10:52:53.877Z,1.20
2018-12-08T10:55:23.900Z,2.73
2018-12-08T10:57:55.090Z,2.00
2018-12-08T11:00:30.228Z,1.80
2018-12-08T11:03:07.171Z,3.90
2018-12-08T11:05:38.072Z,1.40
2018-12-08T11:08:08.936Z,2.83
2018-12-08T11:10:39.357Z,3.10
2018-12-08T11:13:09.889Z,2.43
2018-12-08T11:15:40.707Z,2.47
2018-12-08T11:18:11.200Z,3.50
2018-12-08T11:20:40.953Z,7.30
2018-12-08T11:23:10.636Z,2.30
2018-12-08T11:25:43.973Z,6.20
2018-12-08T11:28:14.593Z,2.33
2018-12-08T11:30:45.265Z,5.53
2018-12-08T11:33:16.205Z,2.00
2018-12-08T11:35:46.647Z,5.40
2018-12-08T11:38:17.199Z,2.13
2018-12-08T11:40:47.086Z,4.10
2018-12-08T11:43:18.784Z,3.03
2018-12-08T11:45:49.653Z,2.13
2018-12-08T11:48:20.192Z,1.53
2018-12-08T11:50:50.951Z,2.10
2018-12-08T11:53:21.286Z,4.90
2018-12-08T11:55:52.928Z,1.27
2018-12-08T11:58:22.485Z,1.50
2018-12-08T12:00:52.392Z,3.50
2018-12-08T12:03:23.276Z,4.47
2018-12-08T12:05:53.869Z,1.87
2018-12-08T12:08:24.191Z,4.77
2018-12-08T12:10:54.413Z,2.87
2018-12-08T12:13:25.341Z,3.87
2018-12-08T12:15:55.996Z,2.80
2018-12-08T12:18:26.247Z,4.00
2018-12-08T12:20:57.334Z,3.83
2018-12-08T12:23:27.016Z,2.83
2018-12-08T12:26:04.262Z,1.63
2018-12-08T12:28:34.393Z,2.20
2018-12-08T12:31:05.805Z,2.43
2018-12-08T12:33:35.441Z,1.60
2018-12-08T12:36:06.521Z,3.40
2018-12-08T12:38:38.358Z,6.67
2018-12-08T12:41:10.550Z,3.67
2018-12-08T12:43:42.325Z,1.97
2018-12-08T12:46:14.602Z,3.43
2018-12-08T12:48:46.740Z,3.23
2018-12-08T12:51:18.616Z,2.70
2018-12-08T12:53:50.553Z,3.17
2018-12-08T12:56:20.250Z,4.10
2018-12-08T12:58:52.613Z,2.90
2018-12-08T13:01:24.321Z,4.70
2018-12-08T13:03:54.527Z,3.60
2018-12-08T13:06:25.476Z,6.00
2018-12-08T13:08:56.190Z,6.90
2018-12-08T13:11:26.425Z,6.30
2018-12-08T13:13:56.804Z,2.40
2018-12-08T13:16:27.578Z,3.40
2018-12-08T13:18:57.606Z,4.30
2018-12-08T13:21:28.491Z,2.83
2018-12-08T13:23:58.817Z,1.70
2018-12-08T13:26:29.414Z,11.23
2018-12-08T13:28:59.579Z,2.13
2018-12-08T13:31:30.882Z,3.37
2018-12-08T13:34:37.944Z,4.50
2018-12-08T13:37:08.125Z,6.60
2018-12-08T13:39:38.937Z,5.77
2018-12-08T13:42:09.473Z,4.10
2018-12-08T13:44:41.672Z,2.47
2018-12-08T13:47:13.847Z,7.90
2018-12-08T13:49:45.427Z,4.40
2018-12-08T13:52:20.972Z,3.30
2018-12-08T13:54:51.789Z,6.60
2018-12-08T13:57:22.699Z,3.87
2018-12-08T13:59:55.737Z,5.53
2018-12-08T14:02:26.787Z,3.83
2018-12-08T14:04:56.742Z,5.80
2018-12-08T14:07:28.096Z,2.63
2018-12-08T14:09:58.961Z,2.93
2018-12-08T14:12:29.860Z,8.63
2018-12-08T14:15:00.102Z,2.63
2018-12-08T14:17:32.040Z,2.60
2018-12-08T14:20:13.699Z,10.53
2018-12-08T14:22:43.630Z,1.77
2018-12-08T14:25:13.951Z,2.20
2018-12-08T14:27:44.970Z,3.93
2018-12-08T14:30:15.311Z,5.23
2018-12-08T14:32:45.039Z,3.67
2018-12-08T14:35:14.755Z,4.13
2018-12-08T14:37:46.911Z,2.60
2018-12-08T14:40:17.064Z,5.70
2018-12-08T14:42:47.946Z,4.57
2018-12-08T14:45:18.027Z,2.20
2018-12-08T14:47:49.167Z,7.13
2018-12-08T14:50:19.779Z,2.30
2018-12-08T14:52:50.435Z,2.50
2018-12-08T14:55:21.003Z,5.07
2018-12-08T14:57:52.080Z,3.30
2018-12-08T15:00:22.092Z,2.50
2018-12-08T15:02:53.195Z,3.40
2018-12-08T15:05:23.964Z,6.07
2018-12-08T15:07:54.013Z,5.00
2018-12-08T15:10:25.150Z,4.70
2018-12-08T15:12:56.303Z,2.93
2018-12-08T15:15:27.230Z,7.13
2018-12-08T15:17:58.021Z,5.77
2018-12-08T15:20:28.699Z,4.77
2018-12-08T15:22:59.232Z,5.13
2018-12-08T15:25:30.076Z,2.40
2018-12-08T15:28:00.094Z,3.10
2018-12-08T15:30:32.165Z,3.60
2018-12-08T15:33:01.764Z,5.40
2018-12-08T15:35:32.176Z,5.10
2018-12-08T15:38:03.099Z,2.83
2018-12-08T15:40:33.026Z,7.90
2018-12-08T15:43:04.070Z,3.40
2018-12-08T15:45:34.649Z,6.50
2018-12-08T15:48:05.190Z,3.40
2018-12-08T15:50:34.872Z,3.70
2018-12-08T15:53:09.421Z,6.13
2018-12-08T15:55:40.898Z,4.63
2018-12-08T15:58:15.323Z,7.53
2018-12-08T16:03:30.921Z,7.47
2018-12-08T16:06:03.662Z,9.57
2018-12-08T16:08:34.528Z,7.33
2018-12-08T16:11:05.344Z,9.60
2018-12-08T16:13:34.990Z,6.47
2018-12-08T16:16:12.185Z,7.93
2018-12-08T16:18:43.179Z,2.30
2018-12-08T16:21:13.297Z,2.20
2018-12-08T16:23:44.536Z,6.87
2018-12-08T16:26:15.600Z,2.03
2018-12-08T16:28:46.059Z,5.73
2018-12-08T16:31:16.725Z,3.23
2018-12-08T16:33:47.555Z,10.30
2018-12-08T16:36:18.473Z,2.90
2018-12-08T16:38:48.964Z,5.77
2018-12-08T16:41:19.424Z,3.70
2018-12-08T16:43:49.947Z,3.03
2018-12-08T16:46:20.277Z,3.50
2018-12-08T16:48:50.567Z,4.77
2018-12-08T16:51:21.494Z,4.40
2018-12-08T16:53:52.080Z,5.93
2018-12-08T16:56:22.443Z,3.47
2018-12-08T16:58:53.144Z,3.17
2018-12-08T17:01:23.475Z,4.33
2018-12-08T17:03:53.701Z,3.90
2018-12-08T17:06:24.701Z,2.70
2018-12-08T17:08:55.674Z,3.00
2018-12-08T17:11:25.930Z,2.37
2018-12-08T17:13:56.972Z,7.37
2018-12-08T17:16:27.507Z,5.70
2018-12-08T17:18:57.861Z,10.10
2018-12-08T17:21:29.858Z,3.03
2018-12-08T17:23:59.702Z,2.90
2018-12-08T17:26:30.495Z,10.50
2018-12-08T17:29:01.019Z,4.33
2018-12-08T17:31:31.733Z,3.23
2018-12-08T17:34:02.863Z,2.97
2018-12-08T17:36:33.494Z,5.60
2018-12-08T17:39:04.595Z,3.43
2018-12-08T17:41:34.829Z,3.63
2018-12-08T17:44:05.612Z,2.53
2018-12-08T17:46:35.253Z,3.43
2018-12-08T17:49:06.903Z,1.37
2018-12-08T17:51:37.841Z,1.90
2018-12-08T17:54:08.051Z,1.73
2018-12-08T17:56:38.573Z,1.30
2018-12-08T17:59:09.093Z,4.80
2018-12-08T18:01:39.959Z,1.77
2018-12-08T18:04:10.319Z,13.30
2018-12-08T18:06:40.509Z,2.70
2018-12-08T18:09:11.750Z,2.03
2018-12-08T18:11:41.890Z,1.90
2018-12-08T18:14:13.168Z,2.30
2018-12-08T18:16:43.809Z,1.97
2018-12-08T18:19:14.063Z,1.50
2018-12-08T18:21:47.953Z,3.90
2018-12-08T18:27:01.610Z,2.10
2018-12-08T18:29:31.804Z,2.20
2018-12-08T18:32:05.156Z,2.03
2018-12-08T18:34:35.754Z,3.10
2018-12-08T18:37:07.158Z,1.77
2018-12-08T18:39:39.285Z,2.57
2018-12-08T18:42:12.485Z,3.33
2018-12-08T18:44:42.263Z,4.93
2018-12-08T18:47:17.024Z,1.50
2018-12-08T18:49:47.141Z,3.43
2018-12-08T18:52:23.869Z,2.70
2018-12-08T18:54:54.415Z,4.20
2018-12-08T18:57:25.321Z,5.77
2018-12-08T18:59:55.614Z,3.13
2018-12-08T19:02:26.318Z,2.10
2018-12-08T19:04:56.012Z,2.60
2018-12-08T19:07:27.244Z,2.20
2018-12-08T19:09:56.942Z,3.60
2018-12-08T19:12:30.874Z,2.87
2018-12-08T19:15:02.406Z,2.30
2018-12-08T19:17:32.060Z,2.33
2018-12-08T19:20:06.760Z,2.53
2018-12-08T19:22:41.245Z,8.83
2018-12-08T19:25:13.355Z,2.53
2018-12-08T19:27:44.470Z,2.70
2018-12-08T19:30:15.284Z,1.80
2018-12-08T19:32:47.203Z,1.83
2018-12-08T19:35:19.357Z,1.43
2018-12-08T19:37:49.806Z,2.37
2018-12-08T19:40:20.679Z,2.60
2018-12-08T19:42:51.216Z,2.33
2018-12-08T19:45:22.066Z,2.13
2018-12-08T19:47:52.536Z,2.00
2018-12-08T19:50:23.481Z,3.73
2018-12-08T19:52:54.455Z,3.83
2018-12-08T19:55:25.222Z,4.53
2018-12-08T19:57:56.090Z,2.60
2018-12-08T20:00:26.360Z,2.57
2018-12-08T20:02:57.495Z,2.30
2018-12-08T20:05:27.632Z,2.53
2018-12-08T20:07:58.124Z,2.43
2018-12-08T20:10:28.543Z,1.60
2018-12-08T20:12:59.130Z,3.60
2018-12-08T20:15:29.303Z,3.30
2018-12-08T20:18:00.468Z,2.70
2018-12-08T20:20:30.445Z,3.57
2018-12-08T20:23:01.407Z,3.70
2018-12-08T20:25:31.336Z,3.20
2018-12-08T20:28:02.383Z,2.33
2018-12-08T20:30:33.080Z,2.30
2018-12-08T20:33:03.559Z,1.27
2018-12-08T20:35:34.416Z,1.57
2018-12-08T20:38:04.618Z,1.47
2018-12-08T20:40:35.198Z,1.60
2018-12-08T20:43:06.325Z,1.93
2018-12-08T20:45:35.872Z,1.40
2018-12-08T20:48:10.573Z,1.87
2018-12-08T20:50:41.102Z,3.77
2018-12-08T20:53:11.550Z,2.60
2018-12-08T20:55:42.811Z,1.50
2018-12-08T20:58:12.412Z,4.50
2018-12-08T21:00:43.579Z,3.40
2018-12-08T21:03:13.559Z,1.33
2018-12-08T21:05:43.761Z,1.80
2018-12-08T21:08:15.733Z,2.40
2018-12-08T21:10:46.659Z,2.47
2018-12-08T21:13:16.636Z,3.43
2018-12-08T21:15:48.620Z,2.30
2018-12-08T21:18:18.804Z,4.37
2018-12-08T21:20:48.748Z,2.77
2018-12-08T21:23:19.689Z,2.53
2018-12-08T21:25:49.812Z,3.00
2018-12-08T21:28:20.566Z,1.90
2018-12-08T21:30:50.661Z,2.20
2018-12-08T21:33:21.859Z,1.67
2018-12-08T21:35:51.726Z,2.07
2018-12-08T21:38:22.960Z,3.10
2018-12-08T21:40:54.022Z,3.33
2018-12-08T21:43:24.576Z,2.80
2018-12-08T21:45:54.846Z,1.63
2018-12-08T21:48:24.955Z,2.10
2018-12-08T21:50:56.277Z,1.50
2018-12-08T21:53:26.128Z,2.03
2018-12-08T21:55:56.659Z,1.60
2018-12-08T21:58:27.911Z,2.13
2018-12-08T22:00:59.177Z,3.30
2018-12-08T22:03:28.860Z,1.70
2018-12-08T22:05:58.893Z,2.07
2018-12-08T22:08:29.836Z,1.93
2018-12-08T22:11:00.880Z,2.17
2018-12-08T22:13:31.798Z,1.77
2018-12-08T22:16:02.091Z,1.27
2018-12-08T22:18:32.981Z,1.47
2018-12-08T22:21:03.021Z,2.37
2018-12-08T22:23:34.864Z,1.90
2018-12-08T22:26:04.901Z,1.73
2018-12-08T22:28:35.386Z,7.00
2018-12-08T22:31:05.207Z,5.63
2018-12-08T22:33:35.140Z,1.90
2018-12-08T22:36:06.056Z,1.60
2018-12-08T22:38:35.576Z,2.20
2018-12-08T22:41:12.630Z,1.30
2018-12-08T22:43:44.853Z,1.30
2018-12-08T22:46:18.945Z,1.40
2018-12-08T22:48:49.048Z,1.40
2018-12-08T22:51:21.729Z,2.40
2018-12-08T22:53:53.803Z,1.30
2018-12-08T22:56:23.397Z,1.40
2018-12-08T22:58:55.156Z,1.47
2018-12-08T23:01:29.003Z,1.67
2018-12-08T23:03:59.091Z,1.50
2018-12-08T23:06:30.355Z,1.90
2018-12-08T23:09:01.158Z,1.93
2018-12-08T23:11:32.250Z,1.93
2018-12-08T23:14:04.200Z,2.03
2018-12-08T23:16:34.295Z,2.37
2018-12-08T23:19:04.424Z,1.70
2018-12-08T23:21:35.480Z,1.80
2018-12-08T23:24:05.840Z,3.00
2018-12-08T23:26:35.430Z,2.00
2018-12-08T23:29:06.451Z,1.83
2018-12-08T23:31:36.025Z,3.10
2018-12-08T23:34:08.392Z,2.60
2018-12-08T23:36:42.072Z,2.70
2018-12-08T23:39:12.307Z,1.60
2018-12-08T23:41:42.339Z,1.80
2018-12-08T23:44:13.351Z,2.07
2018-12-08T23:46:45.456Z,2.13
2018-12-08T23:49:15.483Z,1.70
2018-12-08T23:51:48.308Z,1.50
2018-12-08T23:54:18.352Z,2.03
2018-12-08T23:56:50.501Z,1.47
2018-12-08T23:59:21.346Z,1.67
